createdAt,value
2019-05-16T00:00:24.261Z,75.39
2019-05-16T00:01:29.997Z,75.46
2019-05-16T00:02:33.935Z,75.61
2019-05-16T00:03:38.454Z,75.63
2019-05-16T00:04:42.190Z,75.69
2019-05-16T00:05:51.416Z,75.68
2019-05-16T00:06:52.142Z,75.75
2019-05-16T00:07:59.028Z,76.20
2019-05-16T00:09:01.998Z,76.43
2019-05-16T00:10:08.360Z,76.85
2019-05-16T00:11:12.806Z,76.70
2019-05-16T00:12:18.418Z,76.72
2019-05-16T00:13:22.648Z,76.57
2019-05-16T00:14:28.169Z,76.30
2019-05-16T00:15:31.848Z,76.37
2019-05-16T00:16:37.992Z,76.25
2019-05-16T00:17:41.894Z,76.10
2019-05-16T00:18:47.926Z,76.10
2019-05-16T00:19:51.441Z,76.39
2019-05-16T00:20:55.658Z,76.81
2019-05-16T00:21:59.294Z,76.83
2019-05-16T00:23:03.532Z,76.92
2019-05-16T00:24:08.254Z,77.10
2019-05-16T00:25:13.346Z,77.11
2019-05-16T00:26:19.481Z,77.32
2019-05-16T00:27:22.906Z,77.31
2019-05-16T00:28:28.637Z,77.77
2019-05-16T00:29:32.503Z,77.77
2019-05-16T00:30:36.160Z,77.59
2019-05-16T00:31:40.350Z,77.52
2019-05-16T00:32:44.291Z,77.47
2019-05-16T00:33:48.876Z,77.65
2019-05-16T00:34:52.567Z,77.79
2019-05-16T00:36:03.376Z,77.87
2019-05-16T00:37:02.112Z,77.83
2019-05-16T00:38:08.674Z,77.83
2019-05-16T00:39:12.114Z,78.33
2019-05-16T00:40:18.585Z,78.88
2019-05-16T00:41:21.682Z,79.21
2019-05-16T00:42:25.897Z,79.29
2019-05-16T00:43:29.528Z,79.48
2019-05-16T00:44:33.749Z,79.34
2019-05-16T00:45:38.573Z,79.09
2019-05-16T00:46:42.854Z,78.91
2019-05-16T00:47:48.024Z,78.79
2019-05-16T00:48:52.724Z,78.71
2019-05-16T00:49:58.233Z,78.69
2019-05-16T00:51:03.246Z,78.92
2019-05-16T00:52:07.793Z,79.19
2019-05-16T00:53:12.092Z,79.23
2019-05-16T00:54:15.634Z,79.83
2019-05-16T00:55:19.866Z,80.23
2019-05-16T00:56:24.014Z,80.18
2019-05-16T00:57:28.690Z,80.38
2019-05-16T00:58:34.133Z,80.32
2019-05-16T00:59:39.123Z,80.64
2019-05-16T01:00:50.324Z,80.48
2019-05-16T01:01:54.756Z,81.01
2019-05-16T01:02:58.250Z,81.30
2019-05-16T01:04:08.018Z,81.30
2019-05-16T01:05:14.392Z,81.42
2019-05-16T01:06:22.680Z,81.37
2019-05-16T01:07:23.386Z,81.46
2019-05-16T01:08:28.273Z,81.25
2019-05-16T01:09:32.454Z,81.37
2019-05-16T01:10:38.912Z,81.33
2019-05-16T01:11:42.118Z,81.51
2019-05-16T01:12:48.049Z,81.76
2019-05-16T01:13:51.980Z,81.74
2019-05-16T01:14:58.287Z,81.54
2019-05-16T01:16:01.558Z,81.64
2019-05-16T01:17:05.807Z,81.75
2019-05-16T01:18:09.467Z,81.25
2019-05-16T01:19:14.782Z,81.23
2019-05-16T01:20:19.197Z,80.99
2019-05-16T01:21:24.061Z,80.56
2019-05-16T01:22:28.986Z,80.62
2019-05-16T01:23:33.683Z,80.83
2019-05-16T01:24:41.182Z,80.67
2019-05-16T01:25:43.276Z,81.03
2019-05-16T01:26:48.453Z,81.21
2019-05-16T01:27:52.946Z,81.12
2019-05-16T01:28:57.698Z,81.11
2019-05-16T01:30:02.052Z,81.11
2019-05-16T01:31:05.693Z,81.26
2019-05-16T01:32:09.914Z,81.63
2019-05-16T01:33:13.580Z,82.00
2019-05-16T01:34:18.167Z,82.26
2019-05-16T01:35:21.918Z,82.71
2019-05-16T01:36:36.785Z,82.71
2019-05-16T01:37:31.879Z,81.97
2019-05-16T01:38:36.090Z,82.00
2019-05-16T01:39:40.036Z,81.96
2019-05-16T01:40:44.231Z,82.13
2019-05-16T01:41:48.148Z,81.96
2019-05-16T01:42:52.549Z,81.64
2019-05-16T01:43:58.375Z,81.41
2019-05-16T01:45:02.155Z,81.26
2019-05-16T01:46:08.265Z,81.38
2019-05-16T01:47:11.777Z,81.30
2019-05-16T01:48:15.428Z,81.30
2019-05-16T01:49:19.613Z,81.17
2019-05-16T01:50:23.273Z,81.25
2019-05-16T01:51:28.788Z,80.97
2019-05-16T01:52:32.632Z,80.87
2019-05-16T01:53:39.022Z,80.78
2019-05-16T01:54:42.149Z,80.63
2019-05-16T01:55:48.606Z,80.43
2019-05-16T01:56:52.183Z,80.40
2019-05-16T01:57:58.435Z,80.43
2019-05-16T01:59:01.723Z,80.43
2019-05-16T02:00:08.400Z,80.56
2019-05-16T02:01:15.762Z,80.56
2019-05-16T02:02:18.902Z,80.61
2019-05-16T02:03:22.649Z,80.50
2019-05-16T02:04:28.740Z,80.30
2019-05-16T02:05:32.858Z,80.21
2019-05-16T02:06:48.479Z,80.17
2019-05-16T02:07:42.447Z,80.46
2019-05-16T02:08:48.747Z,80.46
2019-05-16T02:09:52.377Z,80.09
2019-05-16T02:10:58.369Z,80.01
2019-05-16T02:12:01.924Z,80.03
2019-05-16T02:13:08.339Z,79.95
2019-05-16T02:14:11.473Z,79.87
2019-05-16T02:15:18.046Z,79.74
2019-05-16T02:16:21.436Z,79.80
2019-05-16T02:17:25.851Z,80.17
2019-05-16T02:18:29.545Z,80.27
2019-05-16T02:19:33.748Z,80.32
2019-05-16T02:20:39.217Z,80.12
2019-05-16T02:21:43.309Z,80.12
2019-05-16T02:22:48.256Z,80.04
2019-05-16T02:23:52.621Z,80.14
2019-05-16T02:24:58.363Z,80.14
2019-05-16T02:26:02.178Z,80.30
2019-05-16T02:27:05.835Z,80.33
2019-05-16T02:28:10.025Z,80.33
2019-05-16T02:29:13.909Z,80.54
2019-05-16T02:30:21.511Z,81.04
2019-05-16T02:31:23.539Z,80.77
2019-05-16T02:32:31.109Z,81.01
2019-05-16T02:33:33.182Z,80.69
2019-05-16T02:34:37.421Z,80.69
2019-05-16T02:35:41.056Z,80.79
2019-05-16T02:36:45.249Z,80.92
2019-05-16T02:37:54.750Z,80.96
2019-05-16T02:38:55.839Z,81.37
2019-05-16T02:40:01.218Z,81.35
2019-05-16T02:41:05.600Z,81.46
2019-05-16T02:42:11.856Z,81.60
2019-05-16T02:43:15.263Z,81.79
2019-05-16T02:44:20.926Z,81.62
2019-05-16T02:45:25.233Z,81.60
2019-05-16T02:46:30.806Z,81.69
2019-05-16T02:47:35.274Z,81.69
2019-05-16T02:48:41.020Z,81.60
2019-05-16T02:49:44.932Z,81.35
2019-05-16T02:50:51.218Z,81.06
2019-05-16T02:51:54.555Z,80.94
2019-05-16T02:53:01.287Z,81.19
2019-05-16T02:54:03.889Z,81.03
2019-05-16T02:55:11.301Z,80.90
2019-05-16T02:56:13.797Z,80.51
2019-05-16T02:57:20.954Z,80.51
2019-05-16T02:58:23.871Z,80.23
2019-05-16T02:59:30.595Z,80.34
2019-05-16T03:00:42.713Z,80.27
2019-05-16T03:01:44.599Z,80.24
2019-05-16T03:02:50.493Z,80.12
2019-05-16T03:03:54.335Z,80.18
2019-05-16T03:05:00.935Z,80.12
2019-05-16T03:06:04.372Z,80.14
2019-05-16T03:07:13.357Z,80.46
2019-05-16T03:08:14.566Z,80.30
2019-05-16T03:09:21.372Z,79.90
2019-05-16T03:10:26.007Z,79.77
2019-05-16T03:11:31.422Z,79.78
2019-05-16T03:12:37.568Z,79.78
2019-05-16T03:13:43.646Z,79.40
2019-05-16T03:14:50.422Z,79.29
2019-05-16T03:15:55.609Z,78.72
2019-05-16T03:17:03.164Z,78.72
2019-05-16T03:18:07.405Z,79.24
2019-05-16T03:19:12.821Z,79.25
2019-05-16T03:20:16.995Z,79.31
2019-05-16T03:21:24.097Z,79.19
2019-05-16T03:22:31.591Z,79.19
2019-05-16T03:23:35.537Z,79.71
2019-05-16T03:24:42.057Z,79.36
2019-05-16T03:25:45.421Z,79.36
2019-05-16T03:26:51.451Z,79.76
2019-05-16T03:27:55.191Z,79.55
2019-05-16T03:29:00.923Z,79.53
2019-05-16T03:30:05.728Z,79.48
2019-05-16T03:31:14.921Z,79.44
2019-05-16T03:32:15.368Z,79.51
2019-05-16T03:33:25.958Z,79.53
2019-05-16T03:34:26.384Z,79.44
2019-05-16T03:35:34.096Z,79.36
2019-05-16T03:36:36.421Z,79.40
2019-05-16T03:37:51.528Z,79.69
2019-05-16T03:38:46.111Z,79.70
2019-05-16T03:39:51.484Z,79.73
2019-05-16T03:40:55.221Z,79.77
2019-05-16T03:42:01.085Z,79.95
2019-05-16T03:43:04.919Z,79.93
2019-05-16T03:44:11.279Z,79.95
2019-05-16T03:45:14.541Z,79.87
2019-05-16T03:46:21.509Z,79.96
2019-05-16T03:47:24.109Z,80.70
2019-05-16T03:48:31.278Z,80.53
2019-05-16T03:49:33.777Z,79.54
2019-05-16T03:50:41.052Z,79.39
2019-05-16T03:51:43.778Z,80.54
2019-05-16T03:52:50.872Z,80.54
2019-05-16T03:53:53.683Z,81.66
2019-05-16T03:55:01.389Z,80.93
2019-05-16T03:56:03.659Z,81.03
2019-05-16T03:57:11.364Z,80.37
2019-05-16T03:58:13.245Z,80.69
2019-05-16T03:59:17.435Z,80.42
2019-05-16T04:00:24.306Z,80.43
2019-05-16T04:01:31.283Z,80.35
2019-05-16T04:02:33.848Z,79.90
2019-05-16T04:03:40.993Z,77.41
2019-05-16T04:04:43.434Z,79.20
2019-05-16T04:05:47.746Z,79.90
2019-05-16T04:06:51.428Z,80.10
2019-05-16T04:08:10.385Z,80.74
2019-05-16T04:09:01.842Z,80.74
2019-05-16T04:10:10.892Z,80.99
2019-05-16T04:11:13.650Z,80.92
2019-05-16T04:12:21.134Z,79.53
2019-05-16T04:13:23.443Z,79.94
2019-05-16T04:14:30.700Z,79.94
2019-05-16T04:15:33.074Z,79.63
2019-05-16T04:16:37.265Z,80.08
2019-05-16T04:17:41.515Z,79.77
2019-05-16T04:18:45.831Z,78.98
2019-05-16T04:19:50.874Z,79.50
2019-05-16T04:20:55.255Z,80.87
2019-05-16T04:22:01.369Z,81.64
2019-05-16T04:23:04.879Z,81.69
2019-05-16T04:24:12.041Z,81.71
2019-05-16T04:25:14.597Z,82.68
2019-05-16T04:26:21.390Z,82.59
2019-05-16T04:27:24.339Z,82.21
2019-05-16T04:28:31.358Z,82.14
2019-05-16T04:29:34.102Z,82.76
2019-05-16T04:30:37.745Z,83.12
2019-05-16T04:31:42.041Z,83.50
2019-05-16T04:32:45.798Z,83.45
2019-05-16T04:33:51.645Z,83.80
2019-05-16T04:34:55.883Z,83.87
2019-05-16T04:36:01.188Z,83.05
2019-05-16T04:37:05.228Z,83.17
2019-05-16T04:38:31.874Z,83.29
2019-05-16T04:39:24.649Z,83.58
2019-05-16T04:40:31.157Z,83.46
2019-05-16T04:41:34.618Z,83.47
2019-05-16T04:42:41.625Z,83.65
2019-05-16T04:43:44.261Z,84.24
2019-05-16T04:44:51.289Z,84.31
2019-05-16T04:45:53.844Z,83.62
2019-05-16T04:47:01.745Z,83.60
2019-05-16T04:48:10.977Z,83.83
2019-05-16T04:49:13.793Z,83.99
2019-05-16T04:50:20.804Z,84.38
2019-05-16T04:51:23.729Z,84.21
2019-05-16T04:52:27.355Z,82.96
2019-05-16T04:53:32.529Z,83.18
2019-05-16T04:54:36.178Z,83.85
2019-05-16T04:55:41.991Z,84.31
2019-05-16T04:56:46.287Z,84.46
2019-05-16T04:57:51.298Z,84.86
2019-05-16T04:58:54.987Z,84.90
2019-05-16T05:00:02.393Z,84.76
2019-05-16T05:01:04.568Z,83.93
2019-05-16T05:02:11.938Z,83.51
2019-05-16T05:03:14.154Z,83.39
2019-05-16T05:04:20.930Z,83.37
2019-05-16T05:05:23.620Z,82.74
2019-05-16T05:06:31.019Z,82.47
2019-05-16T05:07:33.311Z,82.71
2019-05-16T05:08:52.896Z,82.67
2019-05-16T05:09:42.860Z,83.18
2019-05-16T05:10:47.463Z,82.89
2019-05-16T05:11:52.125Z,82.35
2019-05-16T05:12:56.518Z,81.84
2019-05-16T05:14:00.937Z,81.72
2019-05-16T05:15:10.845Z,81.49
2019-05-16T05:16:12.841Z,81.89
2019-05-16T05:17:17.031Z,81.31
2019-05-16T05:18:21.498Z,80.29
2019-05-16T05:19:25.985Z,80.27
2019-05-16T05:20:30.468Z,80.17
2019-05-16T05:21:34.750Z,80.33
2019-05-16T05:22:39.779Z,80.54
2019-05-16T05:23:44.758Z,81.52
2019-05-16T05:24:50.590Z,81.52
2019-05-16T05:25:55.306Z,82.41
2019-05-16T05:26:59.803Z,81.97
2019-05-16T05:28:10.047Z,81.59
2019-05-16T05:29:14.175Z,81.59
2019-05-16T05:30:19.919Z,81.63
2019-05-16T05:31:25.793Z,81.92
2019-05-16T05:32:30.767Z,80.62
2019-05-16T05:33:34.461Z,81.03
2019-05-16T05:34:39.853Z,80.70
2019-05-16T05:35:43.669Z,80.62
2019-05-16T05:36:47.867Z,81.53
2019-05-16T05:37:51.502Z,82.53
2019-05-16T05:39:07.925Z,82.53
2019-05-16T05:40:01.129Z,81.96
2019-05-16T05:41:05.629Z,81.65
2019-05-16T05:42:10.507Z,81.36
2019-05-16T05:43:14.941Z,80.97
2019-05-16T05:44:20.351Z,81.46
2019-05-16T05:45:24.733Z,80.28
2019-05-16T05:46:31.407Z,80.05
2019-05-16T05:47:34.283Z,80.05
2019-05-16T05:48:40.863Z,79.71
2019-05-16T05:49:44.625Z,79.69
2019-05-16T05:50:50.692Z,79.74
2019-05-16T05:51:54.243Z,79.63
2019-05-16T05:52:57.891Z,80.35
2019-05-16T05:54:02.145Z,79.51
2019-05-16T05:55:06.810Z,79.47
2019-05-16T05:56:11.508Z,79.17
2019-05-16T05:57:24.495Z,79.35
2019-05-16T05:58:31.068Z,79.41
2019-05-16T05:59:35.018Z,79.15
2019-05-16T06:00:40.565Z,78.40
2019-05-16T06:01:44.376Z,78.68
2019-05-16T06:02:50.876Z,79.03
2019-05-16T06:03:53.990Z,78.00
2019-05-16T06:04:59.753Z,77.19
2019-05-16T06:06:03.561Z,77.76
2019-05-16T06:07:10.009Z,77.81
2019-05-16T06:08:13.109Z,76.97
2019-05-16T06:09:26.410Z,77.47
2019-05-16T06:10:22.791Z,77.47
2019-05-16T06:11:27.063Z,77.23
2019-05-16T06:12:31.840Z,75.73
2019-05-16T06:13:36.021Z,76.35
2019-05-16T06:14:43.491Z,75.96
2019-05-16T06:15:51.132Z,75.40
2019-05-16T06:16:55.305Z,75.29
2019-05-16T06:18:00.971Z,75.75
2019-05-16T06:19:04.614Z,75.19
2019-05-16T06:20:14.817Z,75.50
2019-05-16T06:21:20.286Z,75.76
2019-05-16T06:22:24.747Z,75.95
2019-05-16T06:23:30.804Z,76.31
2019-05-16T06:24:36.345Z,76.67
2019-05-16T06:25:40.537Z,76.08
2019-05-16T06:26:44.935Z,74.84
2019-05-16T06:27:51.153Z,74.77
2019-05-16T06:28:54.989Z,73.53
2019-05-16T06:30:00.551Z,73.64
2019-05-16T06:31:04.550Z,74.14
2019-05-16T06:32:10.176Z,73.90
2019-05-16T06:33:14.131Z,73.73
2019-05-16T06:34:17.845Z,73.37
2019-05-16T06:35:24.121Z,72.66
2019-05-16T06:36:27.514Z,72.95
2019-05-16T06:37:31.702Z,72.88
2019-05-16T06:38:35.488Z,73.55
2019-05-16T06:39:45.043Z,73.35
2019-05-16T06:40:45.459Z,74.05
2019-05-16T06:41:50.962Z,72.93
2019-05-16T06:42:54.869Z,71.17
2019-05-16T06:43:59.908Z,69.53
2019-05-16T06:45:04.511Z,70.05
2019-05-16T06:46:10.832Z,70.15
2019-05-16T06:47:19.684Z,70.08
2019-05-16T06:48:21.225Z,69.82
2019-05-16T06:49:25.528Z,68.28
2019-05-16T06:50:29.851Z,68.44
2019-05-16T06:51:33.587Z,68.12
2019-05-16T06:52:37.633Z,67.46
2019-05-16T06:53:41.258Z,65.53
2019-05-16T06:54:50.393Z,65.69
2019-05-16T06:55:53.891Z,65.62
2019-05-16T06:57:00.185Z,66.12
2019-05-16T06:58:03.505Z,65.84
2019-05-16T06:59:10.184Z,64.54
2019-05-16T07:00:13.654Z,64.68
2019-05-16T07:01:20.644Z,62.56
2019-05-16T07:02:30.646Z,63.59
2019-05-16T07:03:31.559Z,64.33
2019-05-16T07:04:35.600Z,64.73
2019-05-16T07:05:40.611Z,64.87
2019-05-16T07:06:55.940Z,62.75
2019-05-16T07:07:50.887Z,61.88
2019-05-16T07:08:54.723Z,62.19
2019-05-16T07:10:04.194Z,62.75
2019-05-16T07:11:04.329Z,62.42
2019-05-16T07:12:10.487Z,62.61
2019-05-16T07:13:14.115Z,62.43
2019-05-16T07:14:22.514Z,62.56
2019-05-16T07:15:23.801Z,63.11
2019-05-16T07:16:29.954Z,63.36
2019-05-16T07:17:33.520Z,62.88
2019-05-16T07:18:40.237Z,63.45
2019-05-16T07:19:43.095Z,62.48
2019-05-16T07:20:47.277Z,62.45
2019-05-16T07:21:50.997Z,63.05
2019-05-16T07:22:55.226Z,63.24
2019-05-16T07:24:00.121Z,62.62
2019-05-16T07:25:07.377Z,62.54
2019-05-16T07:26:11.242Z,62.85
2019-05-16T07:27:16.446Z,62.26
2019-05-16T07:28:21.115Z,63.18
2019-05-16T07:29:25.804Z,62.83
2019-05-16T07:30:30.357Z,63.13
2019-05-16T07:31:35.111Z,63.58
2019-05-16T07:32:40.530Z,62.76
2019-05-16T07:33:44.953Z,63.83
2019-05-16T07:34:49.836Z,64.63
2019-05-16T07:35:54.230Z,64.44
2019-05-16T07:37:00.331Z,63.06
2019-05-16T07:38:03.845Z,62.89
2019-05-16T07:39:07.500Z,62.36
2019-05-16T07:40:19.014Z,62.39
2019-05-16T07:41:17.250Z,61.50
2019-05-16T07:42:21.453Z,62.54
2019-05-16T07:43:25.140Z,62.41
2019-05-16T07:44:30.984Z,62.77
2019-05-16T07:45:37.647Z,63.27
2019-05-16T07:46:44.521Z,61.56
2019-05-16T07:47:46.374Z,60.12
2019-05-16T07:48:51.820Z,60.57
2019-05-16T07:49:55.908Z,60.87
2019-05-16T07:51:00.582Z,61.09
2019-05-16T07:52:04.422Z,61.11
2019-05-16T07:53:10.565Z,60.84
2019-05-16T07:54:14.419Z,60.85
2019-05-16T07:55:20.900Z,61.47
2019-05-16T07:56:24.001Z,62.61
2019-05-16T07:57:30.509Z,63.11
2019-05-16T07:58:33.620Z,62.32
2019-05-16T07:59:40.444Z,61.46
2019-05-16T08:00:52.709Z,60.32
2019-05-16T08:01:53.693Z,59.85
2019-05-16T08:02:55.139Z,59.99
2019-05-16T08:04:00.099Z,59.29
2019-05-16T08:05:04.265Z,59.44
2019-05-16T08:06:10.896Z,59.91
2019-05-16T08:07:13.835Z,59.87
2019-05-16T08:08:23.285Z,59.73
2019-05-16T08:09:23.427Z,59.67
2019-05-16T08:10:37.883Z,58.76
2019-05-16T08:11:33.064Z,57.19
2019-05-16T08:12:37.234Z,58.50
2019-05-16T08:13:40.891Z,57.80
2019-05-16T08:14:45.528Z,56.62
2019-05-16T08:15:50.415Z,56.12
2019-05-16T08:16:55.055Z,57.44
2019-05-16T08:18:03.168Z,57.42
2019-05-16T08:19:04.627Z,58.19
2019-05-16T08:20:10.785Z,58.95
2019-05-16T08:21:16.950Z,59.79
2019-05-16T08:22:22.190Z,60.10
2019-05-16T08:23:26.001Z,60.01
2019-05-16T08:24:30.594Z,59.68
2019-05-16T08:25:37.271Z,59.81
2019-05-16T08:26:43.204Z,60.23
2019-05-16T08:27:46.833Z,59.55
2019-05-16T08:28:50.748Z,60.36
2019-05-16T08:29:55.061Z,61.24
2019-05-16T08:31:00.936Z,60.84
2019-05-16T08:32:05.059Z,59.90
2019-05-16T08:33:13.226Z,59.85
2019-05-16T08:34:14.820Z,58.99
2019-05-16T08:35:21.007Z,59.28
2019-05-16T08:36:24.496Z,58.61
2019-05-16T08:38:34.080Z,58.61
2019-05-16T08:39:37.703Z,58.88
2019-05-16T08:41:51.616Z,57.23
2019-05-16T08:42:54.058Z,56.24
2019-05-16T08:44:01.146Z,57.28
2019-05-16T08:45:04.676Z,57.97
2019-05-16T08:46:11.715Z,56.51
2019-05-16T08:47:14.344Z,56.92
2019-05-16T08:48:22.401Z,57.38
2019-05-16T08:49:24.247Z,57.92
2019-05-16T08:50:08.653Z,56.90
2019-05-16T08:50:28.214Z,57.27
2019-05-16T08:51:33.799Z,57.55
2019-05-16T08:52:37.553Z,59.36
2019-05-16T08:54:47.140Z,54.50
2019-05-16T08:55:51.326Z,54.24
2019-05-16T08:57:02.419Z,54.47
2019-05-16T08:58:03.239Z,53.46
2019-05-16T08:59:06.871Z,52.70
2019-05-16T09:00:14.791Z,51.59
2019-05-16T09:01:21.486Z,51.61
2019-05-16T09:03:32.048Z,51.09
2019-05-16T09:04:34.846Z,52.15
2019-05-16T09:05:42.621Z,52.91
2019-05-16T09:06:45.090Z,53.18
2019-05-16T09:07:48.784Z,53.64
2019-05-16T09:08:52.984Z,52.91
2019-05-16T09:10:00.183Z,53.04
2019-05-16T09:10:30.562Z,56.86
2019-05-16T09:10:30.921Z,51.22
2019-05-16T09:10:35.823Z,59.01
2019-05-16T09:11:26.305Z,53.31
2019-05-16T09:12:08.017Z,52.81
2019-05-16T09:13:12.203Z,52.96
2019-05-16T09:14:17.177Z,52.94
2019-05-16T09:15:22.670Z,53.20
2019-05-16T09:16:27.556Z,54.05
2019-05-16T09:17:31.957Z,54.78
2019-05-16T09:18:41.300Z,54.36
2019-05-16T09:19:41.921Z,53.49
2019-05-16T09:20:45.575Z,54.70
2019-05-16T09:21:49.791Z,56.18
2019-05-16T09:22:53.454Z,56.83
2019-05-16T09:23:57.967Z,56.44
2019-05-16T09:25:01.927Z,56.99
2019-05-16T09:26:07.321Z,57.65
2019-05-16T09:27:17.101Z,57.44
2019-05-16T09:28:18.216Z,57.31
2019-05-16T09:29:21.859Z,55.42
2019-05-16T09:30:27.534Z,56.48
2019-05-16T09:31:31.542Z,56.45
2019-05-16T09:32:36.978Z,56.38
2019-05-16T09:33:41.108Z,56.72
2019-05-16T09:34:47.903Z,57.62
2019-05-16T09:35:50.792Z,57.01
2019-05-16T09:37:00.451Z,57.36
2019-05-16T09:38:00.560Z,57.11
2019-05-16T09:39:08.376Z,56.70
2019-05-16T09:40:12.768Z,57.70
2019-05-16T09:41:17.181Z,57.46
2019-05-16T09:42:21.252Z,57.60
2019-05-16T09:43:28.070Z,56.23
2019-05-16T09:44:30.910Z,55.13
2019-05-16T09:45:37.863Z,55.14
2019-05-16T09:46:40.509Z,53.56
2019-05-16T09:47:44.748Z,53.23
2019-05-16T09:48:48.444Z,53.33
2019-05-16T09:49:53.035Z,53.32
2019-05-16T09:50:58.330Z,52.34
2019-05-16T09:52:02.613Z,53.14
2019-05-16T09:53:07.257Z,52.89
2019-05-16T09:54:11.985Z,52.20
2019-05-16T09:55:17.543Z,53.26
2019-05-16T09:56:22.009Z,53.36
2019-05-16T09:57:27.772Z,53.24
2019-05-16T09:58:31.606Z,51.51
2019-05-16T09:59:37.085Z,51.52
2019-05-16T10:00:41.571Z,50.30
2019-05-16T10:01:47.502Z,49.40
2019-05-16T10:02:50.964Z,50.01
2019-05-16T10:03:54.636Z,49.27
2019-05-16T10:04:58.903Z,48.16
2019-05-16T10:06:02.590Z,48.20
2019-05-16T10:07:06.862Z,48.23
2019-05-16T10:08:10.581Z,48.45
2019-05-16T10:09:17.525Z,49.06
2019-05-16T10:10:21.415Z,49.86
2019-05-16T10:11:31.108Z,48.38
2019-05-16T10:12:31.156Z,47.08
2019-05-16T10:13:37.663Z,47.29
2019-05-16T10:14:40.811Z,46.40
2019-05-16T10:15:47.257Z,46.15
2019-05-16T10:16:50.352Z,46.31
2019-05-16T10:17:57.350Z,44.83
2019-05-16T10:18:59.919Z,44.42
2019-05-16T10:20:07.615Z,44.46
2019-05-16T10:21:09.820Z,44.85
2019-05-16T10:22:16.869Z,44.14
2019-05-16T10:23:19.396Z,44.17
2019-05-16T10:24:23.579Z,44.34
2019-05-16T10:25:27.919Z,44.92
2019-05-16T10:26:32.239Z,45.40
2019-05-16T10:27:36.922Z,44.85
2019-05-16T10:28:41.169Z,44.01
2019-05-16T10:29:48.102Z,43.92
2019-05-16T10:30:51.341Z,47.07
2019-05-16T10:31:56.873Z,44.08
2019-05-16T10:33:01.365Z,43.63
2019-05-16T10:34:07.673Z,43.96
2019-05-16T10:35:11.756Z,44.04
2019-05-16T10:36:17.315Z,42.72
2019-05-16T10:37:21.620Z,42.83
2019-05-16T10:38:28.573Z,41.28
2019-05-16T10:39:31.500Z,42.61
2019-05-16T10:40:36.958Z,40.39
2019-05-16T10:41:41.327Z,41.63
2019-05-16T10:42:47.150Z,42.73
2019-05-16T10:43:50.885Z,42.65
2019-05-16T10:44:57.474Z,42.44
2019-05-16T10:46:00.475Z,40.64
2019-05-16T10:47:04.149Z,42.22
2019-05-16T10:48:08.735Z,41.79
2019-05-16T10:49:12.375Z,41.88
2019-05-16T10:50:16.841Z,42.55
2019-05-16T10:51:23.764Z,42.02
2019-05-16T10:52:27.096Z,42.10
2019-05-16T10:53:58.027Z,43.40
2019-05-16T10:54:37.256Z,42.96
2019-05-16T10:55:41.014Z,43.68
2019-05-16T10:56:46.680Z,43.33
2019-05-16T10:57:50.827Z,43.42
2019-05-16T10:59:25.952Z,43.38
2019-05-16T11:00:09.307Z,44.52
2019-05-16T11:01:22.371Z,44.88
2019-05-16T11:02:11.996Z,45.95
2019-05-16T11:03:17.117Z,45.38
2019-05-16T11:04:29.159Z,44.26
2019-05-16T11:05:33.047Z,44.36
2019-05-16T11:06:32.184Z,44.45
2019-05-16T11:07:37.064Z,44.78
2019-05-16T11:08:40.917Z,45.10
2019-05-16T11:09:55.681Z,45.32
2019-05-16T11:10:50.855Z,45.92
2019-05-16T11:11:57.104Z,46.53
2019-05-16T11:13:00.821Z,45.85
2019-05-16T11:14:09.064Z,46.61
2019-05-16T11:15:11.825Z,47.29
2019-05-16T11:16:17.444Z,47.31
2019-05-16T11:17:21.241Z,47.47
2019-05-16T11:18:27.289Z,50.69
2019-05-16T11:19:30.824Z,50.88
2019-05-16T11:20:37.185Z,50.17
2019-05-16T11:21:40.390Z,52.61
2019-05-16T11:22:47.542Z,54.05
2019-05-16T11:23:49.994Z,52.22
2019-05-16T11:24:56.463Z,53.58
2019-05-16T11:25:59.498Z,55.40
2019-05-16T11:27:03.677Z,55.78
2019-05-16T11:28:07.550Z,55.81
2019-05-16T11:29:11.824Z,55.24
2019-05-16T11:30:18.212Z,55.80
2019-05-16T11:31:22.605Z,56.88
2019-05-16T11:32:27.013Z,56.14
2019-05-16T11:33:31.502Z,55.99
2019-05-16T11:34:37.255Z,55.63
2019-05-16T11:35:41.113Z,57.02
2019-05-16T11:36:44.734Z,55.12
2019-05-16T11:37:48.980Z,55.97
2019-05-16T11:38:52.648Z,55.56
2019-05-16T11:39:57.151Z,54.35
2019-05-16T11:41:00.882Z,51.47
2019-05-16T11:42:07.732Z,52.64
2019-05-16T11:43:17.673Z,51.72
2019-05-16T11:44:17.654Z,51.01
2019-05-16T11:45:22.981Z,50.68
2019-05-16T11:46:28.122Z,51.28
2019-05-16T11:47:32.069Z,50.86
2019-05-16T11:48:37.669Z,50.23
2019-05-16T11:49:41.577Z,50.28
2019-05-16T11:50:47.935Z,49.60
2019-05-16T11:51:51.565Z,50.04
2019-05-16T11:52:56.962Z,48.90
2019-05-16T11:54:00.647Z,48.87
2019-05-16T11:55:09.881Z,47.77
2019-05-16T11:56:13.567Z,47.49
2019-05-16T11:57:18.056Z,47.00
2019-05-16T11:58:21.764Z,48.34
2019-05-16T11:59:26.355Z,48.23
2019-05-16T12:00:30.765Z,45.81
2019-05-16T12:01:36.973Z,45.03
2019-05-16T12:02:42.839Z,45.23
2019-05-16T12:03:46.953Z,45.28
2019-05-16T12:04:50.686Z,44.64
2019-05-16T12:05:57.727Z,44.23
2019-05-16T12:07:00.295Z,42.48
2019-05-16T12:08:07.350Z,42.98
2019-05-16T12:09:09.901Z,43.24
2019-05-16T12:10:16.404Z,44.47
2019-05-16T12:11:21.777Z,43.52
2019-05-16T12:12:27.166Z,43.33
2019-05-16T12:13:32.926Z,43.88
2019-05-16T12:14:37.325Z,44.74
2019-05-16T12:15:40.961Z,43.65
2019-05-16T12:16:47.229Z,42.74
2019-05-16T12:18:00.837Z,42.62
2019-05-16T12:18:57.153Z,41.01
2019-05-16T12:20:01.066Z,42.44
2019-05-16T12:21:07.305Z,41.82
2019-05-16T12:22:12.235Z,44.18
2019-05-16T12:23:17.301Z,42.59
2019-05-16T12:24:33.442Z,41.43
2019-05-16T12:25:27.377Z,41.98
2019-05-16T12:26:33.048Z,40.62
2019-05-16T12:27:42.284Z,41.53
2019-05-16T12:28:43.026Z,40.44
2019-05-16T12:29:54.178Z,39.62
2019-05-16T12:30:52.616Z,39.21
2019-05-16T12:32:02.374Z,39.97
2019-05-16T12:33:02.299Z,37.56
2019-05-16T12:34:10.332Z,40.61
2019-05-16T12:35:14.349Z,39.05
2019-05-16T12:36:19.859Z,38.15
2019-05-16T12:37:23.684Z,38.53
2019-05-16T12:38:28.604Z,39.06
2019-05-16T12:39:32.332Z,37.51
2019-05-16T12:40:37.571Z,35.61
2019-05-16T12:41:41.881Z,36.23
2019-05-16T12:42:47.159Z,36.25
2019-05-16T12:43:53.564Z,34.99
2019-05-16T12:44:56.919Z,36.60
2019-05-16T12:46:00.547Z,37.58
2019-05-16T12:47:07.400Z,38.32
2019-05-16T12:48:10.581Z,40.24
2019-05-16T12:49:17.360Z,38.84
2019-05-16T12:50:20.669Z,36.62
2019-05-16T12:51:26.454Z,39.23
2019-05-16T12:52:31.984Z,36.76
2019-05-16T12:53:53.157Z,38.06
2019-05-16T12:54:44.402Z,37.33
2019-05-16T12:55:48.702Z,36.84
2019-05-16T12:57:11.322Z,37.20
2019-05-16T12:58:36.967Z,34.53
2019-05-16T13:00:07.246Z,35.18
2019-05-16T13:01:33.770Z,35.50
2019-05-16T13:02:41.441Z,34.90
2019-05-16T13:03:48.032Z,35.05
2019-05-16T13:04:57.582Z,35.15
2019-05-16T13:06:04.202Z,36.56
2019-05-16T13:07:14.374Z,35.73
2019-05-16T13:08:18.157Z,35.97
2019-05-16T13:09:26.507Z,34.61
2019-05-16T13:10:33.907Z,36.19
2019-05-16T13:11:38.255Z,35.09
2019-05-16T13:12:41.931Z,36.46
2019-05-16T13:14:02.401Z,34.28
2019-05-16T13:14:51.521Z,35.95
2019-05-16T13:15:55.691Z,34.08
2019-05-16T13:16:59.718Z,34.72
2019-05-16T13:18:03.959Z,33.48
2019-05-16T13:19:07.592Z,37.89
2019-05-16T13:20:13.155Z,35.54
2019-05-16T13:21:18.051Z,35.42
2019-05-16T13:22:22.699Z,36.04
2019-05-16T13:23:27.048Z,35.23
2019-05-16T13:24:31.348Z,36.22
2019-05-16T13:25:36.972Z,36.08
2019-05-16T13:26:40.915Z,36.49
2019-05-16T13:27:47.450Z,36.72
2019-05-16T13:28:50.957Z,36.76
2019-05-16T13:29:54.625Z,37.85
2019-05-16T13:30:59.006Z,36.92
2019-05-16T13:32:03.462Z,37.44
2019-05-16T13:33:07.675Z,37.57
2019-05-16T13:34:11.325Z,36.28
2019-05-16T13:35:16.995Z,35.26
2019-05-16T13:36:20.849Z,36.49
2019-05-16T13:37:27.456Z,35.35
2019-05-16T13:38:30.772Z,34.38
2019-05-16T13:39:35.007Z,34.39
2019-05-16T13:40:38.665Z,34.54
2019-05-16T13:41:42.846Z,34.92
2019-05-16T13:42:48.060Z,35.37
2019-05-16T13:43:52.490Z,34.95
2019-05-16T13:44:57.847Z,36.33
2019-05-16T13:46:02.560Z,36.20
2019-05-16T13:47:07.668Z,35.87
2019-05-16T13:48:12.288Z,35.66
2019-05-16T13:49:18.069Z,36.14
2019-05-16T13:50:22.029Z,35.93
2019-05-16T13:51:26.679Z,34.75
2019-05-16T13:52:31.016Z,35.26
2019-05-16T13:53:37.031Z,36.18
2019-05-16T13:54:42.048Z,36.16
2019-05-16T13:55:46.156Z,35.50
2019-05-16T13:56:50.362Z,35.78